createdAt,value
2017-09-09T00:01:00.101Z,0
2017-09-09T00:02:00.888Z,0
2017-09-09T00:03:01.526Z,0
2017-09-09T00:04:02.160Z,0
2017-09-09T00:05:02.800Z,0
2017-09-09T00:06:03.435Z,0
2017-09-09T00:07:04.074Z,0
2017-09-09T00:08:04.709Z,0
2017-09-09T00:09:05.349Z,0
2017-09-09T00:10:06.235Z,0
2017-09-09T00:11:06.872Z,0
2017-09-09T00:12:07.508Z,0
2017-09-09T00:13:08.143Z,0
2017-09-09T00:14:08.779Z,0
2017-09-09T00:15:09.415Z,0
2017-09-09T00:16:10.053Z,0
2017-09-09T00:17:10.691Z,0
2017-09-09T00:18:11.528Z,0
2017-09-09T00:19:12.168Z,0
2017-09-09T00:20:12.806Z,0
2017-09-09T00:21:13.441Z,0
2017-09-09T00:22:14.076Z,0
2017-09-09T00:23:14.721Z,0
2017-09-09T00:24:15.349Z,0
2017-09-09T00:25:15.987Z,0
2017-09-09T00:26:16.825Z,0
2017-09-09T00:27:17.458Z,0
2017-09-09T00:28:18.095Z,0
2017-09-09T00:29:18.731Z,0
2017-09-09T00:30:19.367Z,0
2017-09-09T00:31:20.003Z,0
2017-09-09T00:32:20.640Z,0
2017-09-09T00:33:21.280Z,0
2017-09-09T00:34:21.918Z,0
2017-09-09T00:35:22.755Z,0
2017-09-09T00:36:23.344Z,0
2017-09-09T00:37:24.029Z,0
2017-09-09T00:38:24.668Z,0
2017-09-09T00:39:25.306Z,0
2017-09-09T00:40:25.948Z,0
2017-09-09T00:41:26.580Z,0
2017-09-09T00:42:27.218Z,0
2017-09-09T00:43:28.155Z,0
2017-09-09T00:44:28.739Z,0
2017-09-09T00:45:29.377Z,0
2017-09-09T00:46:30.015Z,0
2017-09-09T00:47:30.651Z,0
2017-09-09T00:48:31.287Z,0
2017-09-09T00:49:31.926Z,0
2017-09-09T00:50:32.563Z,0
2017-09-09T00:51:33.397Z,0
2017-09-09T00:52:34.037Z,0
2017-09-09T00:53:34.678Z,0
2017-09-09T00:54:35.309Z,0
2017-09-09T00:55:35.946Z,0
2017-09-09T00:56:36.583Z,0
2017-09-09T00:57:37.219Z,0
2017-09-09T00:58:37.858Z,0
2017-09-09T00:59:38.645Z,0
2017-09-09T01:00:39.284Z,0
2017-09-09T01:01:39.920Z,0
2017-09-09T01:02:40.556Z,0
2017-09-09T01:03:41.193Z,0
2017-09-09T01:04:41.831Z,0
2017-09-09T01:05:42.471Z,0
2017-09-09T01:06:43.106Z,0
2017-09-09T01:07:43.742Z,0
2017-09-09T01:08:44.578Z,0
2017-09-09T01:09:45.219Z,0
2017-09-09T01:10:45.853Z,0
2017-09-09T01:11:46.490Z,0
2017-09-09T01:12:47.126Z,0
2017-09-09T01:13:47.762Z,0
2017-09-09T01:14:48.400Z,0
2017-09-09T01:15:49.037Z,0
2017-09-09T01:16:49.975Z,0
2017-09-09T01:17:50.609Z,0
2017-09-09T01:18:51.248Z,0
2017-09-09T01:19:51.885Z,0
2017-09-09T01:20:52.521Z,0
2017-09-09T01:21:53.157Z,0
2017-09-09T01:22:53.794Z,0
2017-09-09T01:23:54.435Z,0
2017-09-09T01:24:55.221Z,0
2017-09-09T01:25:55.856Z,0
2017-09-09T01:26:56.496Z,0
2017-09-09T01:27:57.129Z,0
2017-09-09T01:28:57.765Z,0
2017-09-09T01:29:58.403Z,0
2017-09-09T01:30:59.046Z,0
2017-09-09T01:31:59.731Z,0
2017-09-09T01:33:00.567Z,0
2017-09-09T01:34:01.205Z,0
2017-09-09T01:35:01.845Z,0
2017-09-09T01:36:02.478Z,0
2017-09-09T01:37:03.118Z,0
2017-09-09T01:38:03.752Z,0
2017-09-09T01:39:04.390Z,0
2017-09-09T01:40:05.027Z,0
2017-09-09T01:41:05.813Z,0
2017-09-09T01:42:06.455Z,0
2017-09-09T01:43:07.085Z,0
2017-09-09T01:44:07.720Z,0
2017-09-09T01:45:08.359Z,0
2017-09-09T01:46:09.002Z,0
2017-09-09T01:47:09.635Z,0
2017-09-09T01:48:10.270Z,0
2017-09-09T01:49:10.908Z,0
2017-09-09T01:50:11.745Z,0
2017-09-09T01:51:12.380Z,0
2017-09-09T01:52:13.018Z,0
2017-09-09T01:53:13.652Z,0
2017-09-09T01:54:14.291Z,0
2017-09-09T01:55:14.924Z,0
2017-09-09T01:56:15.567Z,0
2017-09-09T01:57:16.253Z,0
2017-09-09T01:58:17.042Z,0
2017-09-09T01:59:17.677Z,0
2017-09-09T02:00:18.314Z,0
2017-09-09T02:01:18.951Z,0
2017-09-09T02:02:19.585Z,0
2017-09-09T02:03:20.224Z,0
2017-09-09T02:04:20.858Z,0
2017-09-09T02:05:21.498Z,0
2017-09-09T02:06:22.331Z,0
2017-09-09T02:07:22.968Z,0
2017-09-09T02:08:23.604Z,0
2017-09-09T02:09:24.244Z,0
2017-09-09T02:10:24.882Z,0
2017-09-09T02:11:25.517Z,0
2017-09-09T02:12:26.154Z,0
2017-09-09T02:13:26.793Z,0
2017-09-09T02:14:27.580Z,0
2017-09-09T02:15:28.217Z,0
2017-09-09T02:16:28.855Z,0
2017-09-09T02:17:29.441Z,0
2017-09-09T02:18:30.076Z,0
2017-09-09T02:19:30.715Z,0
2017-09-09T02:20:31.358Z,0
2017-09-09T02:21:31.986Z,0
2017-09-09T02:22:32.625Z,0
2017-09-09T02:23:33.511Z,0
2017-09-09T02:24:34.149Z,0
2017-09-09T02:25:34.786Z,0
2017-09-09T02:26:35.420Z,0
2017-09-09T02:27:36.058Z,0
2017-09-09T02:28:36.698Z,0
2017-09-09T02:29:37.331Z,0
2017-09-09T02:30:37.968Z,0
2017-09-09T02:31:38.807Z,0
2017-09-09T02:32:39.446Z,0
2017-09-09T02:33:40.080Z,0
2017-09-09T02:34:40.717Z,0
2017-09-09T02:35:41.352Z,0
2017-09-09T02:36:41.991Z,0
2017-09-09T02:37:42.629Z,0
2017-09-09T02:38:43.265Z,0
2017-09-09T02:39:44.054Z,0
2017-09-09T02:40:44.692Z,0
2017-09-09T02:41:45.330Z,0
2017-09-09T02:42:45.966Z,0
2017-09-09T02:43:46.601Z,0
2017-09-09T02:44:47.242Z,0
2017-09-09T02:45:47.875Z,0
2017-09-09T02:46:48.513Z,0
2017-09-09T02:47:49.349Z,0
2017-09-09T02:48:49.985Z,0
2017-09-09T02:49:50.621Z,0
2017-09-09T02:50:51.256Z,0
2017-09-09T02:51:51.893Z,0
2017-09-09T02:52:52.529Z,0
2017-09-09T02:53:53.167Z,0
2017-09-09T02:54:53.802Z,0
2017-09-09T02:55:54.590Z,0
2017-09-09T02:56:55.230Z,0
2017-09-09T02:57:55.865Z,0
2017-09-09T02:58:56.501Z,0
2017-09-09T02:59:57.143Z,0
2017-09-09T03:00:57.771Z,0
2017-09-09T03:01:58.409Z,0
2017-09-09T03:02:59.046Z,0
2017-09-09T03:03:59.682Z,0
2017-09-09T03:05:00.517Z,0
2017-09-09T03:06:01.157Z,0
2017-09-09T03:07:01.796Z,0
2017-09-09T03:08:02.430Z,0
2017-09-09T03:09:03.071Z,0
2017-09-09T03:10:03.705Z,0
2017-09-09T03:11:04.342Z,0
2017-09-09T03:12:04.983Z,0
2017-09-09T03:13:05.770Z,0
2017-09-09T03:14:06.405Z,0
2017-09-09T03:15:07.046Z,0
2017-09-09T03:16:07.679Z,0
2017-09-09T03:17:08.315Z,0
2017-09-09T03:18:08.952Z,0
2017-09-09T03:19:09.589Z,0
2017-09-09T03:20:10.225Z,0
2017-09-09T03:21:11.063Z,0
2017-09-09T03:22:11.749Z,0
2017-09-09T03:23:12.387Z,0
2017-09-09T03:24:13.054Z,0
2017-09-09T03:25:13.663Z,0
2017-09-09T03:26:14.296Z,0
2017-09-09T03:27:14.937Z,0
2017-09-09T03:28:15.576Z,0
2017-09-09T03:29:16.356Z,0
2017-09-09T03:30:16.995Z,0
2017-09-09T03:31:17.629Z,0
2017-09-09T03:32:18.267Z,0
2017-09-09T03:33:18.903Z,0
2017-09-09T03:34:19.539Z,0
2017-09-09T03:35:20.177Z,0
2017-09-09T03:36:20.815Z,0
2017-09-09T03:37:21.452Z,0
2017-09-09T03:38:22.389Z,0
2017-09-09T03:39:23.023Z,0
2017-09-09T03:40:23.658Z,0
2017-09-09T03:41:24.295Z,0
2017-09-09T03:42:24.933Z,0
2017-09-09T03:43:25.569Z,0
2017-09-09T03:44:26.207Z,0
2017-09-09T03:45:26.847Z,0
2017-09-09T03:46:27.683Z,0
2017-09-09T03:47:28.318Z,0
2017-09-09T03:48:28.957Z,0
2017-09-09T03:49:29.592Z,0
2017-09-09T03:50:30.228Z,0
2017-09-09T03:51:30.864Z,0
2017-09-09T03:52:31.501Z,0
2017-09-09T03:53:32.139Z,0
2017-09-09T03:54:32.974Z,0
2017-09-09T03:55:33.615Z,0
2017-09-09T03:56:34.248Z,0
2017-09-09T03:57:34.884Z,0
2017-09-09T03:58:35.523Z,0
2017-09-09T03:59:36.158Z,0
2017-09-09T04:00:36.794Z,0
2017-09-09T04:01:37.434Z,0
2017-09-09T04:02:38.271Z,0
2017-09-09T04:03:38.907Z,0
2017-09-09T04:04:39.542Z,0
2017-09-09T04:05:40.178Z,0
2017-09-09T04:06:40.816Z,0
2017-09-09T04:07:41.453Z,0
2017-09-09T04:08:42.091Z,0
2017-09-09T04:09:42.729Z,0
2017-09-09T04:10:43.516Z,0
2017-09-09T04:11:44.203Z,0
2017-09-09T04:12:44.839Z,0
2017-09-09T04:13:45.475Z,0
2017-09-09T04:14:46.111Z,0
2017-09-09T04:15:46.750Z,0
2017-09-09T04:16:47.387Z,0
2017-09-09T04:17:48.024Z,0
2017-09-09T04:18:48.658Z,0
2017-09-09T04:19:49.597Z,0
2017-09-09T04:20:50.231Z,0
2017-09-09T04:21:50.870Z,0
2017-09-09T04:22:51.505Z,0
2017-09-09T04:23:52.141Z,0
2017-09-09T04:24:52.776Z,0
2017-09-09T04:25:53.413Z,0
2017-09-09T04:26:53.999Z,0
2017-09-09T04:27:54.833Z,0
2017-09-09T04:28:55.469Z,0
2017-09-09T04:29:56.105Z,0
2017-09-09T04:30:56.758Z,0
2017-09-09T04:31:57.438Z,0
2017-09-09T04:32:58.070Z,0
2017-09-09T04:33:58.706Z,0
2017-09-09T04:34:59.342Z,0
2017-09-09T04:36:00.128Z,0
2017-09-09T04:37:00.767Z,0
2017-09-09T04:38:01.400Z,0
2017-09-09T04:39:02.039Z,0
2017-09-09T04:40:02.674Z,0
2017-09-09T04:41:03.311Z,0
2017-09-09T04:42:03.945Z,0
2017-09-09T04:43:04.582Z,0
2017-09-09T04:44:05.519Z,0
2017-09-09T04:45:06.155Z,0
2017-09-09T04:46:06.789Z,0
2017-09-09T04:47:07.428Z,0
2017-09-09T04:48:08.064Z,0
2017-09-09T04:49:08.700Z,0
2017-09-09T04:50:09.338Z,0
2017-09-09T04:51:09.977Z,0
2017-09-09T04:52:10.611Z,0
2017-09-09T04:53:11.396Z,0
2017-09-09T04:54:12.033Z,0
2017-09-09T04:55:12.669Z,0
2017-09-09T04:56:13.319Z,0
2017-09-09T04:57:13.946Z,0
2017-09-09T04:58:14.585Z,0
2017-09-09T04:59:15.217Z,0
2017-09-09T05:00:15.853Z,0
2017-09-09T05:01:16.692Z,0
2017-09-09T05:02:17.329Z,0
2017-09-09T05:03:17.966Z,0
2017-09-09T05:04:18.650Z,0
2017-09-09T05:05:19.289Z,0
2017-09-09T05:06:19.924Z,0
2017-09-09T05:07:20.560Z,0
2017-09-09T05:08:21.196Z,0
2017-09-09T05:09:22.033Z,0
2017-09-09T05:10:22.669Z,0
2017-09-09T05:11:23.306Z,0
2017-09-09T05:12:23.942Z,0
2017-09-09T05:13:24.579Z,0
2017-09-09T05:14:25.214Z,0
2017-09-09T05:15:25.853Z,0
2017-09-09T05:16:26.489Z,0
2017-09-09T05:17:27.327Z,0
2017-09-09T05:18:27.996Z,0
2017-09-09T05:19:28.598Z,0
2017-09-09T05:20:29.234Z,0
2017-09-09T05:21:29.869Z,0
2017-09-09T05:22:30.509Z,0
2017-09-09T05:23:31.145Z,0
2017-09-09T05:24:31.781Z,0
2017-09-09T05:25:32.615Z,0
2017-09-09T05:26:33.200Z,0
2017-09-09T05:27:33.838Z,0
2017-09-09T05:28:34.478Z,0
2017-09-09T05:29:35.112Z,0
2017-09-09T05:30:35.750Z,0
2017-09-09T05:31:36.386Z,0
2017-09-09T05:32:37.021Z,0
2017-09-09T05:33:37.657Z,0
2017-09-09T05:34:38.546Z,0
2017-09-09T05:35:39.180Z,0
2017-09-09T05:36:39.819Z,0
2017-09-09T05:37:40.457Z,0
2017-09-09T05:38:41.092Z,0
2017-09-09T05:39:41.779Z,0
2017-09-09T05:40:42.466Z,0
2017-09-09T05:41:43.102Z,0
2017-09-09T05:42:43.890Z,0
2017-09-09T05:43:44.528Z,0
2017-09-09T05:44:45.164Z,0
2017-09-09T05:45:45.800Z,0
2017-09-09T05:46:46.444Z,0
2017-09-09T05:47:47.075Z,0
2017-09-09T05:48:47.711Z,0
2017-09-09T05:49:48.348Z,0
2017-09-09T05:50:49.233Z,0
2017-09-09T05:51:49.870Z,0
2017-09-09T05:52:50.509Z,0
2017-09-09T05:53:51.143Z,0
2017-09-09T05:54:51.777Z,0
2017-09-09T05:55:52.415Z,0
2017-09-09T05:56:53.053Z,0
2017-09-09T05:57:53.686Z,0
2017-09-09T05:58:54.474Z,0
2017-09-09T05:59:55.109Z,0
2017-09-09T06:00:55.747Z,0
2017-09-09T06:01:56.383Z,0
2017-09-09T06:02:57.018Z,0
2017-09-09T06:03:57.655Z,0
2017-09-09T06:04:58.290Z,0
2017-09-09T06:05:58.925Z,0
2017-09-09T06:06:59.564Z,0
2017-09-09T06:08:00.398Z,0
2017-09-09T06:09:01.036Z,0
2017-09-09T06:10:01.672Z,0
2017-09-09T06:11:02.309Z,0
2017-09-09T06:12:02.945Z,0
2017-09-09T06:13:03.581Z,0
2017-09-09T06:14:04.218Z,0
2017-09-09T06:15:04.852Z,0
2017-09-09T06:16:05.841Z,0
2017-09-09T06:17:06.476Z,0
2017-09-09T06:18:07.116Z,0
2017-09-09T06:19:07.753Z,0
2017-09-09T06:20:08.387Z,0
2017-09-09T06:21:09.024Z,0
2017-09-09T06:22:09.666Z,0
2017-09-09T06:23:10.295Z,0
2017-09-09T06:24:11.083Z,0
2017-09-09T06:25:11.721Z,0
2017-09-09T06:26:12.356Z,0
2017-09-09T06:27:12.994Z,0
2017-09-09T06:28:13.629Z,0
2017-09-09T06:29:14.264Z,0
2017-09-09T06:30:14.900Z,0
2017-09-09T06:31:15.538Z,0
2017-09-09T06:32:16.376Z,0
2017-09-09T06:33:17.017Z,0
2017-09-09T06:34:17.648Z,0
2017-09-09T06:35:18.287Z,0
2017-09-09T06:36:18.920Z,0
2017-09-09T06:37:19.555Z,0
2017-09-09T06:38:20.193Z,0
2017-09-09T06:39:20.834Z,0
2017-09-09T06:40:21.668Z,0
2017-09-09T06:41:22.303Z,0
2017-09-09T06:42:22.941Z,0
2017-09-09T06:43:23.574Z,0
2017-09-09T06:44:24.211Z,0
2017-09-09T06:45:24.846Z,0
2017-09-09T06:46:25.485Z,0
2017-09-09T06:47:26.119Z,0
2017-09-09T06:48:26.754Z,0
2017-09-09T06:49:27.594Z,0
2017-09-09T06:50:28.231Z,0
2017-09-09T06:51:28.865Z,0
2017-09-09T06:52:29.506Z,0
2017-09-09T06:53:30.144Z,0
2017-09-09T06:54:30.779Z,0
2017-09-09T06:55:31.418Z,0
2017-09-09T06:56:32.053Z,0
2017-09-09T06:57:32.892Z,0
2017-09-09T06:58:33.527Z,0
2017-09-09T06:59:34.166Z,0
2017-09-09T07:00:34.803Z,0
2017-09-09T07:01:35.438Z,0
2017-09-09T07:02:36.074Z,0
2017-09-09T07:03:36.708Z,0
2017-09-09T07:04:37.345Z,0
2017-09-09T07:05:38.080Z,0
2017-09-09T07:06:38.717Z,0
2017-09-09T07:07:39.405Z,0
2017-09-09T07:08:40.040Z,0
2017-09-09T07:09:40.674Z,0
2017-09-09T07:10:41.313Z,0
2017-09-09T07:11:41.951Z,0
2017-09-09T07:12:42.588Z,0
2017-09-09T07:13:43.424Z,0
2017-09-09T07:14:44.057Z,0
2017-09-09T07:15:44.694Z,0
2017-09-09T07:16:45.331Z,0
2017-09-09T07:17:45.970Z,0
2017-09-09T07:18:46.602Z,0
2017-09-09T07:19:47.238Z,0
2017-09-09T07:20:47.873Z,0
2017-09-09T07:21:48.510Z,0
2017-09-09T07:22:49.349Z,0
2017-09-09T07:23:49.985Z,0
2017-09-09T07:24:50.621Z,0
2017-09-09T07:25:51.259Z,0
2017-09-09T07:26:51.897Z,0
2017-09-09T07:27:52.531Z,0
2017-09-09T07:28:53.171Z,0
2017-09-09T07:29:53.806Z,0
2017-09-09T07:30:54.744Z,0
2017-09-09T07:31:55.381Z,0
2017-09-09T07:32:56.018Z,0
2017-09-09T07:33:56.654Z,0
2017-09-09T07:34:57.291Z,0
2017-09-09T07:35:57.925Z,0
2017-09-09T07:36:58.613Z,0
2017-09-09T07:37:59.251Z,0
2017-09-09T07:39:00.135Z,0
2017-09-09T07:40:00.769Z,0
2017-09-09T07:41:01.408Z,0
2017-09-09T07:42:02.105Z,0
2017-09-09T07:43:02.784Z,0
2017-09-09T07:44:03.421Z,0
2017-09-09T07:45:04.057Z,0
2017-09-09T07:46:04.691Z,0
2017-09-09T07:47:05.479Z,0
2017-09-09T07:48:06.115Z,0
2017-09-09T07:49:06.751Z,0
2017-09-09T07:50:07.387Z,0
2017-09-09T07:51:08.023Z,0
2017-09-09T07:52:08.658Z,0
2017-09-09T07:53:09.301Z,0
2017-09-09T07:54:09.931Z,0
2017-09-09T07:55:10.766Z,0
2017-09-09T07:56:11.406Z,0
2017-09-09T07:57:12.039Z,0
2017-09-09T07:58:12.679Z,0
2017-09-09T07:59:13.316Z,0
2017-09-09T08:00:13.952Z,0
2017-09-09T08:01:14.588Z,0
2017-09-09T08:02:15.223Z,0
2017-09-09T08:03:15.861Z,0
2017-09-09T08:04:16.646Z,0
2017-09-09T08:05:17.282Z,0
2017-09-09T08:06:17.920Z,0
2017-09-09T08:07:18.554Z,0
2017-09-09T08:08:19.190Z,0
2017-09-09T08:09:19.825Z,0
2017-09-09T08:10:20.466Z,0
2017-09-09T08:11:21.098Z,0
2017-09-09T08:12:21.936Z,0
2017-09-09T08:13:22.574Z,0
2017-09-09T08:14:23.208Z,0
2017-09-09T08:15:23.848Z,0
2017-09-09T08:16:24.481Z,0
2017-09-09T08:17:25.118Z,0
2017-09-09T08:18:25.757Z,0
2017-09-09T08:19:26.391Z,0
2017-09-09T08:20:27.375Z,0
2017-09-09T08:21:28.012Z,0
2017-09-09T08:22:28.649Z,0
2017-09-09T08:23:29.286Z,0
2017-09-09T08:24:29.924Z,0
2017-09-09T08:25:30.562Z,0
2017-09-09T08:26:31.200Z,0
2017-09-09T08:27:31.837Z,0
2017-09-09T08:28:32.672Z,0
2017-09-09T08:29:33.310Z,4
2017-09-09T08:30:33.949Z,0
2017-09-09T08:31:34.584Z,4
2017-09-09T08:32:35.223Z,0
2017-09-09T08:33:35.860Z,0
2017-09-09T08:34:36.497Z,4
2017-09-09T08:35:37.132Z,4
2017-09-09T08:36:37.775Z,4
2017-09-09T08:37:38.705Z,0
2017-09-09T08:38:39.341Z,4
2017-09-09T08:39:39.983Z,4
2017-09-09T08:40:40.612Z,4
2017-09-09T08:41:41.252Z,4
2017-09-09T08:42:41.891Z,4
2017-09-09T08:43:42.528Z,4
2017-09-09T08:44:43.163Z,4
2017-09-09T08:45:43.999Z,4
2017-09-09T08:46:44.633Z,4
2017-09-09T08:47:45.268Z,4
2017-09-09T08:48:45.905Z,4
2017-09-09T08:49:46.547Z,4
2017-09-09T08:50:47.176Z,4
2017-09-09T08:51:47.811Z,8
2017-09-09T08:52:48.451Z,24
2017-09-09T08:53:49.286Z,24
2017-09-09T08:54:49.924Z,24
2017-09-09T08:55:50.561Z,20
2017-09-09T08:56:51.196Z,24
2017-09-09T08:57:51.833Z,20
2017-09-09T08:58:52.470Z,24
2017-09-09T08:59:53.110Z,20
2017-09-09T09:00:53.749Z,24
2017-09-09T09:01:54.537Z,24
2017-09-09T09:02:55.177Z,24
2017-09-09T09:03:55.811Z,24
2017-09-09T09:04:56.448Z,24
2017-09-09T09:05:57.087Z,24
2017-09-09T09:06:57.723Z,24
2017-09-09T09:07:58.365Z,24
2017-09-09T09:08:59.002Z,24
2017-09-09T09:09:59.888Z,20
2017-09-09T09:11:00.527Z,24
2017-09-09T09:12:01.167Z,24
2017-09-09T09:13:01.806Z,28
2017-09-09T09:14:02.444Z,24
2017-09-09T09:15:03.077Z,28
2017-09-09T09:16:03.719Z,20
2017-09-09T09:17:04.359Z,24
2017-09-09T09:18:04.994Z,24
2017-09-09T09:19:05.836Z,24
2017-09-09T09:20:06.472Z,24
2017-09-09T09:21:07.114Z,28
2017-09-09T09:22:07.746Z,24
2017-09-09T09:23:08.383Z,24
2017-09-09T09:24:09.023Z,24
2017-09-09T09:25:09.658Z,24
2017-09-09T09:26:10.294Z,24
2017-09-09T09:27:11.132Z,24
2017-09-09T09:28:11.768Z,28
2017-09-09T09:29:12.407Z,28
2017-09-09T09:30:13.046Z,24
2017-09-09T09:31:13.680Z,24
2017-09-09T09:32:14.320Z,24
2017-09-09T09:33:14.959Z,24
2017-09-09T09:34:15.595Z,24
2017-09-09T09:35:16.435Z,24
2017-09-09T09:36:17.069Z,24
2017-09-09T09:37:17.708Z,24
2017-09-09T09:38:18.345Z,24
2017-09-09T09:39:18.982Z,24
2017-09-09T09:40:19.622Z,24
2017-09-09T09:41:20.260Z,24
2017-09-09T09:42:20.897Z,20
2017-09-09T09:43:21.684Z,24
2017-09-09T09:44:22.325Z,24
2017-09-09T09:45:22.961Z,24
2017-09-09T09:46:23.601Z,24
2017-09-09T09:47:24.237Z,24
2017-09-09T09:48:24.874Z,24
2017-09-09T09:49:25.516Z,24
2017-09-09T09:50:26.150Z,24
2017-09-09T09:51:26.790Z,24
2017-09-09T09:52:27.631Z,24
2017-09-09T09:53:28.268Z,24
2017-09-09T09:54:28.905Z,24
2017-09-09T09:55:29.552Z,24
2017-09-09T09:56:30.177Z,24
2017-09-09T09:57:30.818Z,24
2017-09-09T09:58:31.455Z,24
2017-09-09T09:59:32.093Z,24
2017-09-09T10:00:32.883Z,20
2017-09-09T10:01:33.524Z,20
2017-09-09T10:02:34.157Z,20
2017-09-09T10:03:34.794Z,24
2017-09-09T10:04:35.430Z,24
2017-09-09T10:05:36.069Z,24
2017-09-09T10:06:36.705Z,24
2017-09-09T10:07:37.341Z,24
2017-09-09T10:08:38.179Z,24
2017-09-09T10:09:38.815Z,28
2017-09-09T10:10:39.456Z,24
2017-09-09T10:11:40.092Z,24
2017-09-09T10:12:40.731Z,28
2017-09-09T10:13:41.371Z,24
2017-09-09T10:14:42.008Z,24
2017-09-09T10:15:42.644Z,20
2017-09-09T10:16:43.482Z,24
2017-09-09T10:17:44.121Z,24
2017-09-09T10:18:44.759Z,24
2017-09-09T10:19:45.396Z,28
2017-09-09T10:20:46.084Z,28
2017-09-09T10:21:46.723Z,24
2017-09-09T10:22:47.363Z,28
2017-09-09T10:23:47.999Z,28
2017-09-09T10:24:48.834Z,28
2017-09-09T10:25:49.471Z,24
2017-09-09T10:26:50.110Z,28
2017-09-09T10:27:50.747Z,28
2017-09-09T10:28:51.385Z,32
2017-09-09T10:29:52.021Z,24
2017-09-09T10:30:52.657Z,28
2017-09-09T10:31:53.295Z,28
2017-09-09T10:32:53.937Z,24
2017-09-09T10:33:54.725Z,20
2017-09-09T10:34:55.362Z,24
2017-09-09T10:35:56.000Z,28
2017-09-09T10:36:56.638Z,28
2017-09-09T10:37:57.276Z,32
2017-09-09T10:38:57.914Z,36
2017-09-09T10:39:58.551Z,32
2017-09-09T10:40:59.193Z,28
2017-09-09T10:42:00.178Z,28
2017-09-09T10:43:00.815Z,32
2017-09-09T10:44:01.453Z,28
2017-09-09T10:45:02.091Z,32
2017-09-09T10:46:02.731Z,32
2017-09-09T10:47:03.366Z,36
2017-09-09T10:48:04.013Z,36
2017-09-09T10:49:04.643Z,36
2017-09-09T10:50:05.481Z,32
2017-09-09T10:51:06.121Z,36
2017-09-09T10:52:06.758Z,32
2017-09-09T10:53:07.395Z,32
2017-09-09T10:54:08.034Z,36
2017-09-09T10:55:08.673Z,36
2017-09-09T10:56:09.311Z,32
2017-09-09T10:57:09.948Z,36
2017-09-09T10:58:10.824Z,32
2017-09-09T10:59:11.426Z,36
2017-09-09T11:00:12.062Z,36
2017-09-09T11:01:12.705Z,36
2017-09-09T11:02:13.341Z,36
2017-09-09T11:03:13.979Z,36
2017-09-09T11:04:14.617Z,32
2017-09-09T11:05:15.256Z,36
2017-09-09T11:06:15.896Z,32
2017-09-09T11:07:16.733Z,32
2017-09-09T11:08:17.371Z,32
2017-09-09T11:09:18.012Z,36
2017-09-09T11:10:18.649Z,36
2017-09-09T11:11:19.286Z,36
2017-09-09T11:12:19.923Z,36
2017-09-09T11:13:20.562Z,36
2017-09-09T11:14:21.203Z,32
2017-09-09T11:15:22.138Z,36
2017-09-09T11:16:22.775Z,32
2017-09-09T11:17:23.415Z,36
2017-09-09T11:18:24.052Z,36
2017-09-09T11:19:24.690Z,36
2017-09-09T11:20:25.326Z,36
2017-09-09T11:21:25.968Z,36
2017-09-09T11:22:26.604Z,36
2017-09-09T11:23:27.444Z,40
2017-09-09T11:24:28.082Z,36
2017-09-09T11:25:28.718Z,36
2017-09-09T11:26:29.357Z,36
2017-09-09T11:27:29.997Z,32
2017-09-09T11:28:30.632Z,36
2017-09-09T11:29:31.268Z,32
2017-09-09T11:30:31.906Z,32
2017-09-09T11:31:32.846Z,32
2017-09-09T11:32:33.484Z,32
2017-09-09T11:33:34.121Z,32
2017-09-09T11:34:34.759Z,32
2017-09-09T11:35:35.402Z,32
2017-09-09T11:36:36.034Z,32
2017-09-09T11:37:36.671Z,32
2017-09-09T11:38:37.308Z,32
2017-09-09T11:39:38.196Z,32
2017-09-09T11:40:38.833Z,32
2017-09-09T11:41:39.476Z,32
2017-09-09T11:42:40.108Z,32
2017-09-09T11:43:40.749Z,32
2017-09-09T11:44:41.386Z,32
2017-09-09T11:45:42.022Z,32
2017-09-09T11:46:42.659Z,28
2017-09-09T11:47:43.301Z,32
2017-09-09T11:48:44.141Z,32
2017-09-09T11:49:44.781Z,36
2017-09-09T11:50:45.417Z,28
2017-09-09T11:51:46.059Z,28
2017-09-09T11:52:46.699Z,32
2017-09-09T11:53:47.331Z,32
2017-09-09T11:54:47.969Z,32
2017-09-09T11:55:48.610Z,28
2017-09-09T11:56:49.396Z,28
2017-09-09T11:57:50.035Z,36
2017-09-09T11:58:50.672Z,28
2017-09-09T11:59:51.310Z,32
2017-09-09T12:00:51.957Z,24
2017-09-09T12:01:52.637Z,28
2017-09-09T12:02:53.276Z,28
2017-09-09T12:03:53.917Z,32
2017-09-09T12:04:54.803Z,36
2017-09-09T12:05:55.443Z,28
2017-09-09T12:06:56.081Z,36
2017-09-09T12:07:56.719Z,36
2017-09-09T12:08:57.364Z,32
2017-09-09T12:09:57.940Z,32
2017-09-09T12:10:58.581Z,36
2017-09-09T12:11:59.271Z,36
2017-09-09T12:13:00.109Z,32
2017-09-09T12:14:00.750Z,36
2017-09-09T12:15:01.440Z,32
2017-09-09T12:16:02.075Z,36
2017-09-09T12:17:02.715Z,32
2017-09-09T12:18:03.352Z,36
2017-09-09T12:19:03.989Z,32
2017-09-09T12:20:04.628Z,32
2017-09-09T12:21:05.268Z,32
2017-09-09T12:22:06.109Z,32
2017-09-09T12:23:06.746Z,32
2017-09-09T12:24:07.386Z,32
2017-09-09T12:25:08.025Z,32
2017-09-09T12:26:08.664Z,32
2017-09-09T12:27:09.300Z,28
2017-09-09T12:28:09.939Z,32
2017-09-09T12:29:10.577Z,32
2017-09-09T12:30:11.469Z,36
2017-09-09T12:31:12.105Z,36
2017-09-09T12:32:12.743Z,36
2017-09-09T12:33:13.380Z,36
2017-09-09T12:34:14.022Z,32
2017-09-09T12:35:14.666Z,32
2017-09-09T12:36:15.353Z,32
2017-09-09T12:37:15.990Z,32
2017-09-09T12:38:16.830Z,32
2017-09-09T12:39:17.467Z,32
2017-09-09T12:40:18.106Z,32
2017-09-09T12:41:18.742Z,32
2017-09-09T12:42:19.381Z,32
2017-09-09T12:43:20.021Z,32
2017-09-09T12:44:20.657Z,28
2017-09-09T12:45:21.296Z,32
2017-09-09T12:46:22.089Z,32
2017-09-09T12:47:22.722Z,32
2017-09-09T12:48:23.359Z,32
2017-09-09T12:49:24.001Z,32
2017-09-09T12:50:24.639Z,36
2017-09-09T12:51:25.281Z,32
2017-09-09T12:52:25.915Z,36
2017-09-09T12:53:26.555Z,36
2017-09-09T12:54:27.295Z,36
2017-09-09T12:55:27.930Z,32
2017-09-09T12:56:28.572Z,32
2017-09-09T12:57:29.205Z,32
2017-09-09T12:58:29.844Z,36
2017-09-09T12:59:30.483Z,36
2017-09-09T13:00:31.121Z,36
2017-09-09T13:01:31.761Z,36
2017-09-09T13:02:32.398Z,36
2017-09-09T13:03:33.188Z,36
2017-09-09T13:04:33.824Z,36
2017-09-09T13:05:34.465Z,40
2017-09-09T13:06:35.100Z,40
2017-09-09T13:07:35.742Z,36
2017-09-09T13:08:36.377Z,36
2017-09-09T13:09:37.013Z,36
2017-09-09T13:10:37.651Z,36
2017-09-09T13:11:38.489Z,36
2017-09-09T13:12:39.127Z,36
2017-09-09T13:13:39.766Z,36
2017-09-09T13:14:40.407Z,36
2017-09-09T13:15:40.996Z,36
2017-09-09T13:16:41.634Z,36
2017-09-09T13:17:42.270Z,36
2017-09-09T13:18:42.915Z,36
2017-09-09T13:19:43.703Z,40
2017-09-09T13:20:44.340Z,36
2017-09-09T13:21:44.980Z,40
2017-09-09T13:22:45.617Z,36
2017-09-09T13:23:46.253Z,36
2017-09-09T13:24:46.892Z,36
2017-09-09T13:25:47.530Z,36
2017-09-09T13:26:48.173Z,36
2017-09-09T13:27:49.009Z,36
2017-09-09T13:28:49.650Z,36
2017-09-09T13:29:50.287Z,36
2017-09-09T13:30:50.876Z,36
2017-09-09T13:31:51.514Z,36
2017-09-09T13:32:52.152Z,36
2017-09-09T13:33:52.793Z,32
2017-09-09T13:34:53.436Z,36
2017-09-09T13:35:54.129Z,36
2017-09-09T13:36:54.963Z,36
2017-09-09T13:37:55.606Z,40
2017-09-09T13:38:56.244Z,40
2017-09-09T13:39:56.879Z,36
2017-09-09T13:40:57.517Z,36
2017-09-09T13:41:58.154Z,36
2017-09-09T13:42:58.794Z,36
2017-09-09T13:43:59.432Z,40
2017-09-09T13:45:00.221Z,40
2017-09-09T13:46:00.857Z,40
2017-09-09T13:47:01.496Z,44
2017-09-09T13:48:02.131Z,40
2017-09-09T13:49:02.774Z,44
2017-09-09T13:50:03.415Z,44
2017-09-09T13:51:04.050Z,44
2017-09-09T13:52:04.688Z,44
2017-09-09T13:53:05.678Z,44
2017-09-09T13:54:06.317Z,40
2017-09-09T13:55:06.954Z,40
2017-09-09T13:56:07.644Z,44
2017-09-09T13:57:08.284Z,40
2017-09-09T13:58:08.920Z,40
2017-09-09T13:59:09.558Z,40
2017-09-09T14:00:10.196Z,44
2017-09-09T14:01:11.039Z,40
2017-09-09T14:02:11.727Z,44
2017-09-09T14:03:12.365Z,44
2017-09-09T14:04:13.002Z,44
2017-09-09T14:05:13.644Z,44
2017-09-09T14:06:14.281Z,44
2017-09-09T14:07:14.920Z,40
2017-09-09T14:08:15.557Z,44
2017-09-09T14:09:16.199Z,44
2017-09-09T14:10:17.063Z,44
2017-09-09T14:11:17.674Z,48
2017-09-09T14:12:18.317Z,44
2017-09-09T14:13:18.914Z,44
2017-09-09T14:14:19.542Z,40
2017-09-09T14:15:20.180Z,44
2017-09-09T14:16:20.821Z,44
2017-09-09T14:17:21.460Z,44
2017-09-09T14:18:22.246Z,44
2017-09-09T14:19:22.941Z,44
2017-09-09T14:20:23.629Z,48
2017-09-09T14:21:24.271Z,48
2017-09-09T14:22:24.909Z,44
2017-09-09T14:23:25.546Z,44
2017-09-09T14:24:26.183Z,48
2017-09-09T14:25:26.826Z,48
2017-09-09T14:26:27.662Z,48
2017-09-09T14:27:28.303Z,48
2017-09-09T14:28:28.940Z,48
2017-09-09T14:29:29.580Z,52
2017-09-09T14:30:30.216Z,52
2017-09-09T14:31:30.855Z,48
2017-09-09T14:32:31.493Z,52
2017-09-09T14:33:32.136Z,48
2017-09-09T14:34:32.821Z,48
2017-09-09T14:35:33.461Z,52
2017-09-09T14:36:34.100Z,48
2017-09-09T14:37:34.793Z,52
2017-09-09T14:38:35.432Z,48
2017-09-09T14:39:36.074Z,48
2017-09-09T14:40:36.716Z,48
2017-09-09T14:41:37.353Z,52
2017-09-09T14:42:37.992Z,52
2017-09-09T14:43:38.831Z,52
2017-09-09T14:44:39.470Z,52